Time;durP1;ratioP1;P1;durP2;ratioP2;P2;SDS_P1;SDS_P2;PMS_P1;PMS_P2;Temp;Humidity;BMP_temperature;BMP_pressure;BME280_temperature;BME280_humidity;BME280_pressure;Samples;Min_cycle;Max_cycle;Signal;HPM_P1;HPM_P2
2023/05/10 00:00:53;;;;;;;11.40;4.83;;;;;;;10.61;62.18;100947.69;5003540;57;1138926;-77
2023/05/10 00:06:44;;;;;;;10.13;4.95;;;;;;;10.54;62.42;100939.36;5002309;56;1140810;-78
2023/05/10 00:11:49;;;;;;;7.30;4.60;;;;;;;10.48;62.34;100927.88;5022989;56;1140840;-76
2023/05/10 00:16:55;;;;;;;12.70;4.40;;;;;;;10.38;62.75;100921.09;5003776;56;1138700;-76
2023/05/10 00:22:01;;;;;;;15.58;4.42;;;;;;;10.29;63.45;100914.25;5004184;57;1140843;-75
2023/05/10 00:27:07;;;;;;;5.47;3.93;;;;;;;10.23;63.62;100918.19;5023667;57;1140817;-75
2023/05/10 00:32:13;;;;;;;19.03;4.87;;;;;;;10.23;63.00;100918.66;5004239;57;1138736;-78
2023/05/10 00:37:19;;;;;;;8.33;4.73;;;;;;;10.19;63.19;100908.78;4984424;57;1141023;-78
2023/05/10 00:42:24;;;;;;;8.68;5.03;;;;;;;10.13;63.46;100910.48;5024029;57;1138677;-76
2023/05/10 00:47:31;;;;;;;10.80;4.50;;;;;;;10.07;63.94;100901.67;5004284;56;1138873;-75
2023/05/10 00:52:37;;;;;;;10.47;4.30;;;;;;;10.00;64.20;100897.27;5004228;56;1140778;-75
2023/05/10 00:57:43;;;;;;;7.33;4.43;;;;;;;9.97;63.66;100887.39;5023766;56;1141079;-78
2023/05/10 01:02:49;;;;;;;12.10;4.37;;;;;;;9.90;64.09;100879.53;5001306;56;1136936;-77
2023/05/10 01:07:55;;;;;;;8.00;4.40;;;;;;;9.82;64.04;100876.92;5000116;56;1138917;-76
2023/05/10 01:13:01;;;;;;;15.38;5.58;;;;;;;9.75;64.65;100874.83;4964357;56;1136786;-76
2023/05/10 01:18:09;;;;;;;7.23;4.07;;;;;;;9.70;64.84;100875.61;4976518;57;1138871;-77
2023/05/10 01:23:31;;;;;;;7.33;4.30;;;;;;;9.70;64.19;100865.89;4960024;58;1136757;-78
2023/05/10 01:29:12;;;;;;;10.27;4.50;;;;;;;9.67;64.47;100863.45;4911777;56;1136811;-76
2023/05/10 01:34:21;;;;;;;13.03;4.37;;;;;;;9.64;64.52;100862.80;4958805;56;1138976;-79
2023/05/10 01:39:32;;;;;;;6.15;4.22;;;;;;;9.64;64.12;100853.56;4996858;57;1138915;-78
2023/05/10 01:45:09;;;;;;;4.62;3.90;;;;;;;9.61;64.13;100849.36;4930339;57;1136760;-76
2023/05/10 01:50:26;;;;;;;5.90;4.00;;;;;;;9.58;64.16;100852.20;4961686;56;1134545;-76
2023/05/10 01:55:36;;;;;;;16.80;5.63;;;;;;;9.51;64.32;100842.52;4961573;56;1136763;-75
2023/05/10 02:00:45;;;;;;;7.20;4.60;;;;;;;9.51;64.47;100851.77;4980794;56;1136855;-75
2023/05/10 02:05:57;;;;;;;8.00;4.37;;;;;;;9.44;64.57;100849.19;4959841;56;1134538;-77
2023/05/10 02:11:05;;;;;;;8.93;4.73;;;;;;;9.41;64.46;100842.78;4865938;58;1134480;-78
2023/05/10 02:16:12;;;;;;;7.23;4.03;;;;;;;9.32;64.74;100838.11;4916332;57;1134649;-76
2023/05/10 02:21:21;;;;;;;10.00;4.40;;;;;;;9.30;64.95;100843.98;4952081;57;1134527;-78
2023/05/10 02:26:27;;;;;;;5.67;4.05;;;;;;;9.27;65.27;100832.78;5006598;56;1136783;-77
2023/05/10 02:31:35;;;;;;;5.62;3.95;;;;;;;9.18;65.50;100828.95;4988586;56;1134934;-75
2023/05/10 02:36:42;;;;;;;12.10;4.58;;;;;;;9.12;66.00;100830.23;5047794;56;1134616;-76
2023/05/10 02:41:50;;;;;;;13.23;5.37;;;;;;;9.08;65.99;100824.77;5041442;56;1136682;-75
2023/05/10 02:46:55;;;;;;;10.00;5.20;;;;;;;9.09;65.80;100833.53;5013074;56;1136637;-78
2023/05/10 02:52:06;;;;;;;5.83;4.05;;;;;;;9.07;66.12;100820.91;5013091;56;1136943;-74
2023/05/10 02:57:19;;;;;;;8.17;4.23;;;;;;;9.03;66.10;100829.97;5031767;57;1134587;-77
2023/05/10 03:02:24;;;;;;;7.67;4.13;;;;;;;8.95;66.48;100819.94;4921019;57;1134818;-74
2023/05/10 03:07:30;;;;;;;5.53;4.20;;;;;;;8.95;66.48;100830.49;4951686;56;1134713;-81
2023/05/10 03:13:18;;;;;;;9.97;4.40;;;;;;;8.93;66.64;100825.79;4891638;58;1134666;-79
2023/05/10 03:18:44;;;;;;;9.60;4.70;;;;;;;8.92;66.49;100821.45;4965219;56;1134683;-75
2023/05/10 03:24:08;;;;;;;7.23;4.63;;;;;;;8.90;66.94;100813.27;5013934;56;1134747;-79
2023/05/10 03:29:16;;;;;;;8.50;4.77;;;;;;;8.84;67.34;100818.49;5013104;56;1134602;-74
2023/05/10 03:34:26;;;;;;;11.40;4.10;;;;;;;8.81;67.08;100814.73;5029888;56;1135019;-78
2023/05/10 03:39:32;;;;;;;6.12;4.08;;;;;;;8.78;67.40;100814.45;4872177;57;1136677;-76
2023/05/10 03:44:39;;;;;;;6.70;4.40;;;;;;;8.78;67.43;100814.92;4947079;58;1134721;-74
2023/05/10 03:49:45;;;;;;;15.87;4.67;;;;;;;8.78;67.59;100810.97;4966540;57;1134595;-75
2023/05/10 03:54:51;;;;;;;11.83;4.87;;;;;;;8.73;67.48;100805.14;4946161;58;1137094;-77
2023/05/10 03:59:56;;;;;;;6.50;3.80;;;;;;;8.72;68.26;100811.36;4947214;58;1136630;-77
2023/05/10 04:05:02;;;;;;;12.07;4.87;;;;;;;8.75;68.40;100825.67;4946875;58;1134709;-77
2023/05/10 04:10:09;;;;;;;12.80;4.30;;;;;;;8.77;68.49;100825.09;4965956;58;1136868;-73
2023/05/10 04:15:14;;;;;;;8.53;4.43;;;;;;;8.80;68.13;100821.80;4949552;58;1136800;-76
2023/05/10 04:20:20;;;;;;;5.73;4.03;;;;;;;8.83;68.48;100821.23;4962230;56;1134654;-74
2023/05/10 04:25:25;;;;;;;10.20;4.77;;;;;;;8.86;68.55;100823.67;5024163;56;1134652;-77
2023/05/10 04:30:31;;;;;;;10.72;5.20;;;;;;;8.93;68.31;100820.52;5004112;56;1136665;-74
2023/05/10 04:35:37;;;;;;;13.45;3.87;;;;;;;8.94;68.46;100823.52;4931322;56;1136740;-76
2023/05/10 04:40:42;;;;;;;7.63;3.97;;;;;;;8.98;68.32;100819.75;5023235;56;1136816;-78
2023/05/10 04:45:50;;;;;;;13.17;5.47;;;;;;;9.04;68.42;100821.95;5004122;56;1134684;-77
2023/05/10 04:50:56;;;;;;;12.83;4.60;;;;;;;9.10;68.32;100816.76;5003781;57;1136712;-76
2023/05/10 04:56:01;;;;;;;9.33;4.60;;;;;;;9.16;68.35;100822.95;5004067;57;1136690;-75
2023/05/10 05:01:10;;;;;;;11.65;4.10;;;;;;;9.21;68.14;100819.52;5023539;56;1134590;-79
2023/05/10 05:06:15;;;;;;;12.43;4.43;;;;;;;9.32;68.11;100828.05;5004122;57;1136689;-77
2023/05/10 05:11:25;;;;;;;9.50;4.05;;;;;;;9.39;67.21;100820.92;4988150;56;1136673;-76
2023/05/10 05:16:32;;;;;;;10.78;4.40;;;;;;;9.52;67.68;100823.09;4912511;57;1134693;-76
2023/05/10 05:21:38;;;;;;;8.13;4.00;;;;;;;9.68;66.80;100820.25;4947150;57;1138879;-77
2023/05/10 05:26:44;;;;;;;5.60;4.12;;;;;;;9.87;66.66;100826.42;5043378;56;1136661;-75
2023/05/10 05:31:49;;;;;;;7.20;4.07;;;;;;;10.06;66.53;100810.98;5041346;57;1136634;-77
2023/05/10 05:36:55;;;;;;;7.10;4.33;;;;;;;10.23;66.13;100819.06;4958873;57;1139000;-74
2023/05/10 05:42:01;;;;;;;12.33;4.85;;;;;;;10.40;65.51;100821.31;4958780;57;1138739;-75
2023/05/10 05:47:07;;;;;;;6.63;4.77;;;;;;;10.52;65.66;100825.75;4976104;57;1140888;-76
2023/05/10 05:52:13;;;;;;;6.47;4.07;;;;;;;10.76;65.68;100810.34;4956306;57;1138728;-77
2023/05/10 05:57:18;;;;;;;7.27;4.73;;;;;;;10.97;63.61;100813.22;4956393;57;1138877;-75
2023/05/10 06:02:24;;;;;;;17.82;4.35;;;;;;;11.14;63.46;100818.09;4978472;57;1138829;-74
2023/05/10 06:07:30;;;;;;;14.20;5.70;;;;;;;11.33;63.99;100821.02;4962317;57;1140999;-77
2023/05/10 06:12:36;;;;;;;8.53;4.23;;;;;;;11.53;63.23;100824.80;4955337;57;1140809;-76
2023/05/10 06:17:43;;;;;;;10.60;4.07;;;;;;;11.72;63.02;100825.56;5018271;57;1138709;-77
2023/05/10 06:22:48;;;;;;;10.93;4.40;;;;;;;11.97;62.31;100823.55;5032636;56;1140987;-75
2023/05/10 06:27:57;;;;;;;9.77;4.37;;;;;;;12.17;62.11;100831.75;5015133;55;1140939;-75
2023/05/10 06:33:01;;;;;;;5.70;3.83;;;;;;;12.40;60.86;100829.42;5011169;56;1139103;-77
2023/05/10 06:38:07;;;;;;;13.00;3.70;;;;;;;12.58;60.95;100821.80;5031814;55;1138834;-76
2023/05/10 06:43:12;;;;;;;6.63;4.07;;;;;;;12.78;59.91;100811.73;5009087;56;1140841;-77
2023/05/10 06:48:18;;;;;;;8.40;4.10;;;;;;;12.97;59.22;100809.25;4876998;58;1138771;-76
2023/05/10 06:53:23;;;;;;;9.43;4.63;;;;;;;13.16;60.11;100813.88;4897672;57;1138708;-75
2023/05/10 06:58:29;;;;;;;14.63;3.90;;;;;;;13.41;58.00;100819.32;4927465;57;1138963;-73
2023/05/10 07:03:35;;;;;;;8.33;3.98;;;;;;;13.61;58.01;100809.14;4977774;56;1140869;-79
2023/05/10 07:08:40;;;;;;;11.00;4.12;;;;;;;13.83;58.85;100810.81;5043868;56;1138979;-75
2023/05/10 07:13:46;;;;;;;6.97;3.80;;;;;;;14.10;56.31;100819.53;5032856;57;1140850;-77
2023/05/10 07:18:52;;;;;;;4.73;3.27;;;;;;;14.32;55.75;100815.83;5013272;57;1138631;-77
2023/05/10 07:23:59;;;;;;;5.67;3.65;;;;;;;14.46;54.85;100818.14;4936863;58;1139046;-78
2023/05/10 07:29:05;;;;;;;5.57;3.63;;;;;;;14.64;54.30;100803.19;5024169;56;1138762;-73
2023/05/10 07:34:10;;;;;;;9.47;3.70;;;;;;;14.86;55.39;100809.22;5056378;55;1138806;-75
2023/05/10 07:39:16;;;;;;;4.50;3.27;;;;;;;15.09;56.01;100808.81;5044173;55;1138892;-75
2023/05/10 07:44:22;;;;;;;15.37;4.87;;;;;;;15.36;54.21;100812.56;5069087;55;1138779;-76
2023/05/10 07:49:28;;;;;;;6.17;3.80;;;;;;;15.59;52.58;100811.77;5066858;55;1140930;-78
2023/05/10 07:54:33;;;;;;;8.25;3.58;;;;;;;15.60;51.77;100807.63;5067152;56;1138822;-74
2023/05/10 07:59:39;;;;;;;4.20;3.17;;;;;;;15.89;52.55;100806.20;5103324;56;1138979;-77
2023/05/10 08:04:45;;;;;;;7.67;3.53;;;;;;;16.12;48.92;100796.84;5096473;54;1138983;-79
2023/05/10 08:09:50;;;;;;;5.40;2.70;;;;;;;16.18;48.46;100802.09;5096768;54;1138809;-77
2023/05/10 08:14:56;;;;;;;8.33;4.07;;;;;;;16.24;50.20;100798.81;5091340;54;1138837;-75
2023/05/10 08:20:02;;;;;;;5.87;3.67;;;;;;;16.44;49.84;100797.73;5033072;57;1138883;-73
2023/05/10 08:25:08;;;;;;;9.27;2.70;;;;;;;16.60;49.62;100788.22;4922695;57;1138798;-79
2023/05/10 08:30:14;;;;;;;6.23;2.80;;;;;;;16.71;45.60;100801.38;4947050;57;1138663;-76
2023/05/10 08:35:20;;;;;;;7.73;2.63;;;;;;;16.76;45.40;100797.27;4995468;57;1138894;-74
2023/05/10 08:40:27;;;;;;;6.03;2.77;;;;;;;16.85;45.79;100787.48;5030306;56;1138807;-74
2023/05/10 08:45:42;;;;;;;7.00;2.83;;;;;;;17.06;46.87;100796.53;4820037;58;1138906;-78
2023/05/10 08:50:49;;;;;;;4.23;2.47;;;;;;;17.26;47.18;100790.52;4838278;58;1138835;-77
2023/05/10 08:55:55;;;;;;;7.20;2.97;;;;;;;17.49;47.29;100791.18;4862031;57;1138675;-77
2023/05/10 09:01:02;;;;;;;3.30;2.60;;;;;;;17.65;46.51;100791.81;4896246;58;1138776;-74
2023/05/10 09:06:08;;;;;;;4.30;2.77;;;;;;;17.78;45.09;100790.88;4919540;58;1138676;-76
2023/05/10 09:11:14;;;;;;;12.27;2.73;;;;;;;17.92;44.50;100787.61;4980378;57;1138973;-79
2023/05/10 09:16:19;;;;;;;4.00;2.27;;;;;;;18.05;43.55;100783.64;4886102;58;1140951;-79
2023/05/10 09:21:26;;;;;;;3.90;2.60;;;;;;;18.17;42.93;100781.05;4919393;58;1138764;-76
2023/05/10 09:26:32;;;;;;;15.10;3.20;;;;;;;18.32;43.00;100778.09;4900547;57;1138878;-77
2023/05/10 09:31:54;;;;;;;5.20;2.20;;;;;;;18.44;42.89;100782.13;4913263;58;1141035;-78
2023/05/10 09:37:08;;;;;;;3.10;2.35;;;;;;;18.48;40.46;100776.80;4932858;57;1138817;-78
2023/05/10 09:42:11;;;;;;;2.80;2.23;;;;;;;18.63;42.79;100778.86;5099866;56;1138793;-75
2023/05/10 09:47:21;;;;;;;1.90;1.80;;;;;;;18.85;39.56;100784.41;5067498;55;1138953;-79
2023/05/10 09:52:26;;;;;;;5.63;1.87;;;;;;;19.00;40.10;100777.05;5085628;54;1138870;-78
2023/05/10 09:57:32;;;;;;;6.03;2.00;;;;;;;19.03;38.34;100782.08;5117496;54;1138846;-79
2023/05/10 10:02:38;;;;;;;13.32;2.55;;;;;;;19.16;38.32;100779.22;5097283;54;1138785;-76
2023/05/10 10:07:43;;;;;;;5.70;2.40;;;;;;;19.19;37.27;100770.85;5096633;54;1140937;-76
2023/05/10 10:12:49;;;;;;;4.22;2.15;;;;;;;19.18;37.84;100771.02;5117254;54;1138830;-76
2023/05/10 10:17:55;;;;;;;4.25;1.80;;;;;;;19.30;37.35;100769.66;5097550;54;1138747;-77
2023/05/10 10:23:01;;;;;;;5.55;1.92;;;;;;;19.26;37.29;100762.95;5097140;56;1138942;-76
2023/05/10 10:28:29;;;;;;;2.63;1.70;;;;;;;19.28;37.05;100751.55;5097450;56;1138818;-80
2023/05/10 10:33:54;;;;;;;3.20;1.95;;;;;;;19.46;38.20;100750.02;5108629;56;1138825;-76
2023/05/10 10:39:02;;;;;;;3.20;2.35;;;;;;;19.52;37.02;100757.43;5086224;56;1138747;-79
2023/05/10 10:44:29;;;;;;;3.72;2.22;;;;;;;19.68;37.75;100747.16;5014165;56;1138792;-79
2023/05/10 10:49:38;;;;;;;7.40;1.85;;;;;;;19.71;34.74;100743.60;5098401;54;1139222;-77
2023/05/10 10:55:02;;;;;;;3.27;1.92;;;;;;;19.72;35.96;100741.76;5092987;55;1138883;-79
2023/05/10 11:00:31;;;;;;;3.37;2.30;;;;;;;19.84;36.27;100727.81;5076062;56;1138720;-80
2023/05/10 11:05:45;;;;;;;12.50;2.05;;;;;;;19.97;35.34;100723.23;5093551;55;1138707;-80
2023/05/10 11:11:08;;;;;;;6.62;2.40;;;;;;;20.02;35.03;100732.41;5116709;55;1140802;-74
2023/05/10 11:16:21;;;;;;;6.50;2.40;;;;;;;20.00;34.69;100724.23;5082509;55;1138670;-78
2023/05/10 11:21:27;;;;;;;3.70;2.20;;;;;;;20.01;33.88;100713.28;5097037;56;1138807;-79
2023/05/10 11:26:35;;;;;;;2.30;2.08;;;;;;;19.96;32.67;100716.18;5116893;55;1148690;-83
2023/05/10 11:31:46;;;;;;;3.10;2.47;;;;;;;19.79;33.69;100710.55;5096790;55;1138801;-75
2023/05/10 11:36:56;;;;;;;7.47;2.10;;;;;;;19.83;35.13;100699.30;5097193;54;1138810;-79
2023/05/10 11:42:02;;;;;;;11.83;3.47;;;;;;;19.95;33.94;100704.61;5081230;55;1148710;-77
2023/05/10 11:47:08;;;;;;;7.00;2.34;;;;;;;20.14;34.72;100705.19;5086308;55;1140871;-78
2023/05/10 11:52:13;;;;;;;9.88;2.85;;;;;;;20.17;34.72;100712.36;5067004;55;1138649;-81
2023/05/10 11:57:21;;;;;;;4.53;2.65;;;;;;;20.26;34.02;100717.20;5066715;56;1138788;-82
2023/05/10 12:02:26;;;;;;;4.42;2.10;;;;;;;20.35;33.07;100716.95;5086697;55;1139137;-81
2023/05/10 12:07:32;;;;;;;4.75;2.35;;;;;;;20.32;33.21;100711.94;5067624;56;1138703;-76
2023/05/10 12:12:43;;;;;;;3.53;2.20;;;;;;;20.47;33.57;100703.98;5068127;55;1138810;-77
2023/05/10 12:17:49;;;;;;;15.25;2.30;;;;;;;20.49;33.64;100693.89;5105363;56;1138659;-75
2023/05/10 12:22:58;;;;;;;14.03;2.00;;;;;;;20.49;32.65;100695.23;4951292;58;1140803;-77
2023/05/10 12:28:09;;;;;;;4.73;2.40;;;;;;;20.53;32.79;100686.31;4951923;57;1140855;-80
2023/05/10 12:33:16;;;;;;;2.93;1.60;;;;;;;20.62;32.53;100698.16;4971688;56;1138858;-78
2023/05/10 12:38:32;;;;;;;2.37;2.00;;;;;;;20.82;32.76;100689.61;4922086;57;1138921;-77
2023/05/10 12:43:38;;;;;;;22.13;2.90;;;;;;;20.77;32.85;100696.05;4965110;57;1138962;-79
2023/05/10 12:48:46;;;;;;;6.78;2.10;;;;;;;20.90;31.89;100703.83;4970935;58;1140749;-75
2023/05/10 12:53:51;;;;;;;17.92;2.52;;;;;;;20.86;32.18;100696.30;5096504;56;1138753;-76
2023/05/10 12:58:57;;;;;;;21.45;2.20;;;;;;;20.84;32.02;100689.75;5096485;56;1140960;-78
2023/05/10 13:04:02;;;;;;;3.02;2.00;;;;;;;20.81;32.34;100676.67;5097060;55;1141092;-77
2023/05/10 13:09:08;;;;;;;2.30;2.02;;;;;;;20.85;31.70;100682.53;5112908;56;1138951;-77
2023/05/10 13:14:14;;;;;;;3.08;2.30;;;;;;;20.95;31.72;100685.28;5094610;56;1139019;-78
2023/05/10 13:19:20;;;;;;;9.28;2.95;;;;;;;20.95;32.05;100685.28;5078526;56;1138995;-76
2023/05/10 13:24:25;;;;;;;4.92;2.47;;;;;;;20.96;32.34;100680.23;5117069;56;1138791;-77
2023/05/10 13:29:31;;;;;;;12.43;2.77;;;;;;;20.91;32.39;100678.62;5097157;56;1138878;-76
2023/05/10 13:34:37;;;;;;;8.38;2.60;;;;;;;20.95;32.36;100669.66;5097043;55;1140972;-76
2023/05/10 13:39:42;;;;;;;21.10;3.17;;;;;;;20.95;32.19;100678.55;4969514;56;1138924;-77
2023/05/10 13:44:48;;;;;;;4.60;2.12;;;;;;;20.99;32.78;100677.18;4851018;58;1140876;-81
2023/05/10 13:49:53;;;;;;;4.58;2.67;;;;;;;20.83;32.88;100660.36;4989759;56;1138937;-74
2023/05/10 13:54:59;;;;;;;3.08;2.44;;;;;;;20.90;33.61;100661.32;5010337;56;1138948;-79
2023/05/10 14:00:06;;;;;;;8.53;2.27;;;;;;;20.92;32.30;100656.09;4996761;56;1138962;-78
2023/05/10 14:05:12;;;;;;;8.48;2.02;;;;;;;20.96;32.78;100660.06;4999702;56;1143913;-79
2023/05/10 14:10:18;;;;;;;7.33;2.40;;;;;;;20.95;32.83;100647.63;5023712;56;1139115;-79
2023/05/10 14:15:23;;;;;;;5.67;3.15;;;;;;;20.96;32.75;100637.20;5021758;56;1139058;-76
2023/05/10 14:20:29;;;;;;;2.10;2.00;;;;;;;20.86;32.81;100642.53;4908912;57;1138875;-74
2023/05/10 14:25:35;;;;;;;12.57;6.33;;;;;;;20.95;33.23;100635.53;4921842;57;1139578;-77
2023/05/10 14:30:41;;;;;;;6.00;2.47;;;;;;;21.09;33.36;100633.87;4943903;57;1141119;-76
2023/05/10 14:35:47;;;;;;;5.60;2.10;;;;;;;21.13;34.05;100642.42;5000122;57;1138743;-76
2023/05/10 14:40:53;;;;;;;3.45;2.50;;;;;;;21.22;34.24;100632.78;4926538;57;1139542;-79
2023/05/10 14:45:58;;;;;;;13.18;5.05;;;;;;;21.38;33.33;100634.45;4896938;57;1139056;-76
2023/05/10 14:51:04;;;;;;;7.60;5.72;;;;;;;21.30;32.98;100629.15;4949066;57;1140965;-76
2023/05/10 14:56:09;;;;;;;11.48;6.40;;;;;;;21.21;33.27;100631.11;4982747;56;1139030;-77
2023/05/10 15:01:15;;;;;;;55.20;31.77;;;;;;;21.17;33.18;100630.28;5048830;56;1141326;-75
2023/05/10 15:06:27;;;;;;;24.15;12.45;;;;;;;21.03;33.50;100637.32;5052937;56;1142880;-76
2023/05/10 15:12:00;;;;;;;4.55;2.50;;;;;;;20.87;34.65;100625.38;5284349;54;46388;-77
2023/05/10 15:17:08;;;;;;;5.70;2.50;;;;;;;20.90;35.38;100619.65;5065866;55;1135014;-75
2023/05/10 15:22:13;;;;;;;5.77;3.27;;;;;;;20.95;34.94;100627.98;5055625;55;1139263;-80
2023/05/10 15:27:19;;;;;;;10.63;2.73;;;;;;;20.96;35.00;100618.89;5173492;54;1139415;-77
2023/05/10 15:32:24;;;;;;;10.67;3.03;;;;;;;21.08;35.32;100626.02;5177315;54;1141105;-81
2023/05/10 15:37:30;;;;;;;2.90;2.00;;;;;;;21.21;33.80;100624.89;4973029;55;1141080;-79
2023/05/10 15:42:36;;;;;;;7.42;3.05;;;;;;;21.21;33.83;100617.66;4861978;56;1139000;-78
2023/05/10 15:47:41;;;;;;;5.42;2.70;;;;;;;21.13;33.97;100617.70;4862011;57;1139008;-79
2023/05/10 15:52:47;;;;;;;4.40;2.60;;;;;;;21.21;35.12;100615.48;5064788;56;1139125;-76
2023/05/10 15:57:52;;;;;;;5.65;2.52;;;;;;;21.15;34.50;100597.34;5066694;55;1139215;-76
2023/05/10 16:02:58;;;;;;;9.60;2.25;;;;;;;21.19;35.79;100617.48;5099210;55;1138939;-77
2023/05/10 16:08:03;;;;;;;3.50;2.30;;;;;;;21.34;34.89;100614.31;5186752;54;1138970;-79
2023/05/10 16:13:09;;;;;;;3.45;2.00;;;;;;;21.23;35.17;100629.08;5166497;54;1138731;-82
2023/05/10 16:18:16;;;;;;;4.97;3.87;;;;;;;21.12;35.52;100629.98;5175725;54;1139158;-82
2023/05/10 16:23:22;;;;;;;8.53;3.30;;;;;;;21.12;36.36;100624.09;5123908;55;1139104;-76
2023/05/10 16:28:27;;;;;;;8.28;2.92;;;;;;;21.02;35.45;100627.08;5128436;54;1138954;-75
2023/05/10 16:33:33;;;;;;;4.08;2.95;;;;;;;20.98;35.74;100630.30;5182419;54;1138783;-79
2023/05/10 16:38:38;;;;;;;8.43;2.72;;;;;;;20.87;35.73;100628.07;5063152;55;1139129;-77
2023/05/10 16:43:44;;;;;;;4.40;3.17;;;;;;;20.81;35.48;100627.45;5187386;55;1139201;-81
2023/05/10 16:48:49;;;;;;;10.00;3.02;;;;;;;20.69;35.73;100619.83;5097631;55;1138882;-76
2023/05/10 16:53:55;;;;;;;4.90;2.55;;;;;;;20.64;36.15;100640.20;5162420;55;1141137;-82
2023/05/10 16:59:01;;;;;;;6.43;2.90;;;;;;;20.50;35.78;100637.80;5183979;54;1139564;-81
2023/05/10 17:04:06;;;;;;;14.18;5.55;;;;;;;20.43;36.28;100647.61;5257244;54;1138903;-75
2023/05/10 17:09:12;;;;;;;7.10;4.75;;;;;;;20.36;37.07;100639.42;5236279;54;1140992;-74
2023/05/10 17:14:17;;;;;;;6.67;3.27;;;;;;;20.33;36.78;100648.30;5176871;54;1139003;-78
2023/05/10 17:19:24;;;;;;;11.22;3.17;;;;;;;20.21;36.87;100648.39;5269635;54;1138921;-80
2023/05/10 17:24:30;;;;;;;31.02;12.10;;;;;;;20.03;36.96;100647.33;5233823;54;1141126;-78
2023/05/10 17:29:35;;;;;;;9.22;4.54;;;;;;;19.96;37.98;100660.64;5246873;54;1143155;-77
2023/05/10 17:34:41;;;;;;;9.33;4.33;;;;;;;19.89;38.44;100669.05;5249896;54;1138847;-79
2023/05/10 17:39:46;;;;;;;6.10;3.47;;;;;;;19.64;38.59;100656.77;5226850;54;1138910;-77
2023/05/10 17:44:52;;;;;;;6.40;3.25;;;;;;;19.64;38.59;100656.77;5215903;54;1138968;-78
2023/05/10 17:49:58;;;;;;;5.23;3.70;;;;;;;19.54;38.52;100669.56;5176241;54;1138894;-75
2023/05/10 17:55:03;;;;;;;8.58;4.33;;;;;;;19.47;39.01;100678.77;5248477;54;1138829;-78
2023/05/10 18:00:10;;;;;;;11.28;4.53;;;;;;;19.36;39.15;100689.87;5223869;54;1139186;-75
2023/05/10 18:05:15;;;;;;;9.37;5.10;;;;;;;19.25;39.42;100688.86;5210899;54;1141720;-77
2023/05/10 18:10:20;;;;;;;8.55;4.97;;;;;;;19.17;39.71;100700.46;5124371;55;1138891;-81
2023/05/10 18:15:27;;;;;;;6.87;4.72;;;;;;;19.08;39.82;100697.97;5191647;55;1138830;-76
2023/05/10 18:20:33;;;;;;;8.65;5.70;;;;;;;18.99;40.13;100699.80;5178886;55;1138998;-78
2023/05/10 18:25:38;;;;;;;10.13;6.35;;;;;;;18.93;40.52;100701.84;5197040;54;1139031;-80
2023/05/10 18:30:44;;;;;;;5.67;3.42;;;;;;;18.86;40.68;100703.50;5178587;54;1141012;-76
2023/05/10 18:35:49;;;;;;;10.80;3.15;;;;;;;18.76;40.95;100714.41;5192766;55;1138833;-78
2023/05/10 18:40:56;;;;;;;14.94;5.48;;;;;;;18.65;41.04;100720.06;5215760;55;1141234;-79
2023/05/10 18:46:02;;;;;;;8.03;3.72;;;;;;;18.52;41.31;100727.23;5193947;54;1140961;-79
2023/05/10 18:51:07;;;;;;;7.60;3.80;;;;;;;18.40;41.52;100725.88;5178419;54;1138916;-76
2023/05/10 18:56:13;;;;;;;15.18;5.40;;;;;;;18.28;41.74;100737.90;5180786;54;1139430;-80
2023/05/10 19:01:18;;;;;;;168.05;128.47;;;;;;;18.12;42.07;100749.40;5219648;54;1140974;-79
2023/05/10 19:06:24;;;;;;;12.27;8.33;;;;;;;17.98;42.22;100750.52;5189134;54;1147134;-77
2023/05/10 19:11:32;;;;;;;72.27;43.90;;;;;;;17.92;42.66;100750.15;5186613;54;1140985;-75
2023/05/10 19:16:37;;;;;;;53.67;21.73;;;;;;;17.81;42.78;100753.11;5191025;55;1143122;-80
2023/05/10 19:21:42;;;;;;;87.60;49.30;;;;;;;17.70;43.54;100768.61;5143422;54;1143011;-79
2023/05/10 19:26:48;;;;;;;42.03;22.83;;;;;;;17.58;44.17;100766.16;5171735;55;1143090;-77
2023/05/10 19:31:54;;;;;;;13.93;6.63;;;;;;;17.45;44.41;100771.59;5211528;55;1143016;-76
2023/05/10 19:37:00;;;;;;;15.77;6.00;;;;;;;17.25;44.70;100771.47;5200133;54;1141171;-77
2023/05/10 19:42:05;;;;;;;19.92;8.88;;;;;;;17.00;44.97;100777.09;5188685;55;1141445;-77
2023/05/10 19:47:11;;;;;;;20.72;11.05;;;;;;;16.82;44.95;100769.92;5210274;54;1141745;-78
2023/05/10 19:52:16;;;;;;;26.10;19.03;;;;;;;16.68;44.81;100781.64;5188961;54;1143748;-80
2023/05/10 19:57:22;;;;;;;24.03;15.30;;;;;;;16.46;44.81;100789.08;5167450;54;1231733;-80
2023/05/10 20:02:28;;;;;;;38.33;25.70;;;;;;;16.46;44.81;100789.08;5201732;54;1180755;-77
2023/05/10 20:07:34;;;;;;;23.43;13.40;;;;;;;16.41;45.05;100795.35;5184192;54;1143061;-78
2023/05/10 20:12:40;;;;;;;41.73;29.37;;;;;;;16.33;45.04;100796.61;5182593;55;1224273;-80
2023/05/10 20:17:58;;;;;;;22.00;11.12;;;;;;;16.28;45.21;100800.70;5182869;53;1147614;-81
2023/05/10 20:23:03;;;;;;;16.97;8.98;;;;;;;16.18;45.55;100801.61;5139388;55;1143268;-80
2023/05/10 20:28:09;;;;;;;28.90;16.62;;;;;;;16.04;45.54;100802.06;5138708;54;1141884;-77
2023/05/10 20:33:15;;;;;;;32.33;19.77;;;;;;;15.91;45.86;100804.72;5128070;54;1143142;-78
2023/05/10 20:38:20;;;;;;;40.33;23.97;;;;;;;15.78;46.08;100812.56;5207042;54;1143159;-80
2023/05/10 20:43:27;;;;;;;39.82;19.72;;;;;;;15.69;46.46;100814.78;5197136;55;1143170;-77
2023/05/10 20:48:33;;;;;;;53.93;33.60;;;;;;;15.54;46.90;100810.02;5195540;54;1143088;-81
2023/05/10 20:53:39;;;;;;;31.30;16.50;;;;;;;15.45;47.13;100809.03;5215388;54;1143234;-78
2023/05/10 20:58:45;;;;;;;27.17;18.30;;;;;;;15.37;47.32;100816.92;5189338;54;1143142;-79
2023/05/10 21:03:50;;;;;;;30.00;16.73;;;;;;;15.29;47.53;100815.44;5154720;55;1143051;-81
2023/05/10 21:08:57;;;;;;;19.20;9.28;;;;;;;15.18;47.89;100815.11;5201783;55;1143212;-79
2023/05/10 21:14:03;;;;;;;28.17;13.17;;;;;;;15.08;48.14;100819.13;5198118;55;1140959;-79
2023/05/10 21:19:08;;;;;;;55.70;32.73;;;;;;;15.02;48.20;100824.99;5205283;54;1143150;-79
2023/05/10 21:24:15;;;;;;;47.98;24.50;;;;;;;14.94;48.50;100824.87;5192761;55;1143293;-76
2023/05/10 21:29:20;;;;;;;35.23;19.90;;;;;;;14.87;48.55;100826.87;5214347;54;1143380;-75
2023/05/10 21:34:26;;;;;;;20.03;6.37;;;;;;;14.75;48.99;100822.18;5189136;54;1143310;-79
2023/05/10 21:39:32;;;;;;;19.10;6.13;;;;;;;14.64;49.17;100824.98;5197268;54;1141023;-78
2023/05/10 21:44:38;;;;;;;26.07;14.67;;;;;;;14.56;49.69;100830.13;5219512;54;1141020;-81
2023/05/10 21:49:44;;;;;;;17.15;9.68;;;;;;;14.45;49.74;100827.09;5170957;54;1143092;-77
2023/05/10 21:54:49;;;;;;;18.47;11.23;;;;;;;14.36;49.94;100824.72;5179598;54;1141207;-77
2023/05/10 21:59:55;;;;;;;16.63;6.47;;;;;;;14.26;50.27;100829.17;5248100;54;1143029;-76
2023/05/10 22:05:03;;;;;;;12.40;5.20;;;;;;;14.22;50.29;100829.09;5181169;54;1141141;-79
2023/05/10 22:10:10;;;;;;;11.95;6.15;;;;;;;14.16;50.46;100831.46;5143350;55;1140962;-79
2023/05/10 22:15:15;;;;;;;10.53;5.23;;;;;;;14.14;50.48;100833.41;5208935;54;1143797;-77
2023/05/10 22:20:21;;;;;;;15.10;6.53;;;;;;;14.08;50.44;100833.44;5216097;54;1140953;-76
2023/05/10 22:25:27;;;;;;;17.57;9.13;;;;;;;13.97;50.67;100845.51;5232686;53;1141436;-79
2023/05/10 22:30:32;;;;;;;13.60;5.70;;;;;;;13.97;50.67;100845.51;5239581;53;1141058;-77
2023/05/10 22:35:38;;;;;;;16.97;6.03;;;;;;;13.90;50.96;100847.84;5228234;53;1141340;-78
2023/05/10 22:40:44;;;;;;;15.53;5.97;;;;;;;13.85;51.04;100850.08;5206686;53;1141629;-77
2023/05/10 22:45:51;;;;;;;21.60;9.70;;;;;;;13.67;51.64;100855.14;5272219;54;1141255;-78
2023/05/10 22:50:56;;;;;;;22.70;8.58;;;;;;;13.67;51.64;100855.14;5250016;54;1142134;-76
2023/05/10 22:56:02;;;;;;;14.77;6.63;;;;;;;13.62;51.51;100865.31;5233814;54;1141148;-75
2023/05/10 23:01:08;;;;;;;18.50;8.20;;;;;;;13.47;52.05;100867.94;5207352;54;1141079;-78
2023/05/10 23:06:14;;;;;;;34.35;15.68;;;;;;;13.40;52.04;100870.77;5172614;54;1141048;-77
2023/05/10 23:11:20;;;;;;;38.53;19.00;;;;;;;13.40;52.02;100869.92;5174288;55;1143291;-78